sensor_id;sensor_type;location;lat;lon;timestamp;temperature;humidity
59025;DHT22;44806;48.008;13.666;2023-03-23T00:00:25;9.90;99.90
59025;DHT22;44806;48.008;13.666;2023-03-23T00:02:57;9.80;99.90
59025;DHT22;44806;48.008;13.666;2023-03-23T00:05:25;9.90;99.90
59025;DHT22;44806;48.008;13.666;2023-03-23T00:07:55;9.80;99.90
59025;DHT22;44806;48.008;13.666;2023-03-23T00:10:24;9.80;99.90
59025;DHT22;44806;48.008;13.666;2023-03-23T00:12:54;9.80;99.90
59025;DHT22;44806;48.008;13.666;2023-03-23T00:15:31;9.70;99.90
59025;DHT22;44806;48.008;13.666;2023-03-23T00:18:09;9.70;99.90
59025;DHT22;44806;48.008;13.666;2023-03-23T00:20:52;9.70;99.90
59025;DHT22;44806;48.008;13.666;2023-03-23T00:23:26;9.70;99.90
59025;DHT22;44806;48.008;13.666;2023-03-23T00:25:59;9.70;99.90
59025;DHT22;44806;48.008;13.666;2023-03-23T00:28:30;9.60;99.90
59025;DHT22;44806;48.008;13.666;2023-03-23T00:31:00;9.60;99.90
59025;DHT22;44806;48.008;13.666;2023-03-23T00:33:38;9.60;99.90
59025;DHT22;44806;48.008;13.666;2023-03-23T00:36:09;9.60;99.90
59025;DHT22;44806;48.008;13.666;2023-03-23T00:38:43;9.60;99.90
59025;DHT22;44806;48.008;13.666;2023-03-23T00:41:15;9.50;99.90
59025;DHT22;44806;48.008;13.666;2023-03-23T00:43:49;9.50;99.90
59025;DHT22;44806;48.008;13.666;2023-03-23T00:46:19;9.50;99.90
59025;DHT22;44806;48.008;13.666;2023-03-23T00:48:57;9.50;99.90
59025;DHT22;44806;48.008;13.666;2023-03-23T00:51:35;9.50;99.90
59025;DHT22;44806;48.008;13.666;2023-03-23T00:54:02;9.50;99.90
59025;DHT22;44806;48.008;13.666;2023-03-23T00:56:33;9.40;99.90
59025;DHT22;44806;48.008;13.666;2023-03-23T00:59:06;9.40;99.90
59025;DHT22;44806;48.008;13.666;2023-03-23T01:01:42;9.40;99.90
59025;DHT22;44806;48.008;13.666;2023-03-23T01:04:11;9.20;99.90
59025;DHT22;44806;48.008;13.666;2023-03-23T01:06:43;9.10;99.90
59025;DHT22;44806;48.008;13.666;2023-03-23T01:09:14;9.10;99.90
59025;DHT22;44806;48.008;13.666;2023-03-23T01:11:49;9.10;99.90
59025;DHT22;44806;48.008;13.666;2023-03-23T01:14:28;9.10;99.90
59025;DHT22;44806;48.008;13.666;2023-03-23T01:17:03;9.00;99.90
59025;DHT22;44806;48.008;13.666;2023-03-23T01:19:33;9.00;99.90
59025;DHT22;44806;48.008;13.666;2023-03-23T01:22:07;9.00;99.90
59025;DHT22;44806;48.008;13.666;2023-03-23T01:24:42;9.10;99.90
59025;DHT22;44806;48.008;13.666;2023-03-23T01:27:11;9.10;99.90
59025;DHT22;44806;48.008;13.666;2023-03-23T01:29:38;9.00;99.90
59025;DHT22;44806;48.008;13.666;2023-03-23T01:32:08;9.00;99.90
59025;DHT22;44806;48.008;13.666;2023-03-23T01:34:40;9.00;99.90
59025;DHT22;44806;48.008;13.666;2023-03-23T01:37:11;9.00;99.90
59025;DHT22;44806;48.008;13.666;2023-03-23T01:39:44;9.00;99.90
59025;DHT22;44806;48.008;13.666;2023-03-23T01:42:15;9.00;99.90
59025;DHT22;44806;48.008;13.666;2023-03-23T01:47:55;9.00;99.90
59025;DHT22;44806;48.008;13.666;2023-03-23T01:50:31;9.00;99.90
59025;DHT22;44806;48.008;13.666;2023-03-23T01:53:08;9.00;99.90
59025;DHT22;44806;48.008;13.666;2023-03-23T01:55:47;9.00;99.90
59025;DHT22;44806;48.008;13.666;2023-03-23T01:58:19;8.90;99.90
59025;DHT22;44806;48.008;13.666;2023-03-23T02:00:51;8.90;99.90
59025;DHT22;44806;48.008;13.666;2023-03-23T02:03:26;8.90;99.90
59025;DHT22;44806;48.008;13.666;2023-03-23T02:05:57;8.90;99.90
59025;DHT22;44806;48.008;13.666;2023-03-23T02:08:30;8.90;99.90
59025;DHT22;44806;48.008;13.666;2023-03-23T02:11:14;8.90;99.90
59025;DHT22;44806;48.008;13.666;2023-03-23T02:13:45;8.90;99.90
59025;DHT22;44806;48.008;13.666;2023-03-23T02:16:20;8.80;99.90
59025;DHT22;44806;48.008;13.666;2023-03-23T02:19:00;8.80;99.90
59025;DHT22;44806;48.008;13.666;2023-03-23T02:21:45;8.80;99.90
59025;DHT22;44806;48.008;13.666;2023-03-23T02:24:49;8.80;99.90
59025;DHT22;44806;48.008;13.666;2023-03-23T02:27:38;8.80;99.90
59025;DHT22;44806;48.008;13.666;2023-03-23T02:30:39;8.80;99.90
59025;DHT22;44806;48.008;13.666;2023-03-23T02:33:36;8.80;99.90
59025;DHT22;44806;48.008;13.666;2023-03-23T02:36:16;8.70;99.90
59025;DHT22;44806;48.008;13.666;2023-03-23T02:38:55;8.70;99.90
59025;DHT22;44806;48.008;13.666;2023-03-23T02:41:31;8.60;99.90
59025;DHT22;44806;48.008;13.666;2023-03-23T02:44:02;8.60;99.90
59025;DHT22;44806;48.008;13.666;2023-03-23T02:46:30;8.60;99.90
59025;DHT22;44806;48.008;13.666;2023-03-23T02:49:00;8.60;99.90
59025;DHT22;44806;48.008;13.666;2023-03-23T02:51:46;8.60;99.90
59025;DHT22;44806;48.008;13.666;2023-03-23T02:54:19;8.60;99.90
59025;DHT22;44806;48.008;13.666;2023-03-23T02:56:53;8.60;99.90
59025;DHT22;44806;48.008;13.666;2023-03-23T02:59:28;8.50;99.90
59025;DHT22;44806;48.008;13.666;2023-03-23T03:02:05;8.50;99.90
59025;DHT22;44806;48.008;13.666;2023-03-23T03:04:44;8.50;99.90
59025;DHT22;44806;48.008;13.666;2023-03-23T03:07:35;8.50;99.90
59025;DHT22;44806;48.008;13.666;2023-03-23T03:10:10;8.50;99.90
59025;DHT22;44806;48.008;13.666;2023-03-23T03:12:46;8.50;99.90
59025;DHT22;44806;48.008;13.666;2023-03-23T03:15:26;8.50;99.90
59025;DHT22;44806;48.008;13.666;2023-03-23T03:18:06;8.50;99.90
59025;DHT22;44806;48.008;13.666;2023-03-23T03:20:44;8.40;99.90
59025;DHT22;44806;48.008;13.666;2023-03-23T03:23:16;8.40;99.90
59025;DHT22;44806;48.008;13.666;2023-03-23T03:25:47;8.40;99.90
59025;DHT22;44806;48.008;13.666;2023-03-23T03:28:17;8.40;99.90
59025;DHT22;44806;48.008;13.666;2023-03-23T03:30:54;8.40;99.90
59025;DHT22;44806;48.008;13.666;2023-03-23T03:33:24;8.40;99.90
59025;DHT22;44806;48.008;13.666;2023-03-23T03:35:58;8.40;99.90
59025;DHT22;44806;48.008;13.666;2023-03-23T03:38:40;8.40;99.90
59025;DHT22;44806;48.008;13.666;2023-03-23T03:41:10;8.40;99.90
59025;DHT22;44806;48.008;13.666;2023-03-23T03:43:50;8.40;99.90
59025;DHT22;44806;48.008;13.666;2023-03-23T03:46:18;8.30;99.90
59025;DHT22;44806;48.008;13.666;2023-03-23T03:48:48;8.40;99.90
59025;DHT22;44806;48.008;13.666;2023-03-23T03:51:21;8.30;99.90
59025;DHT22;44806;48.008;13.666;2023-03-23T03:53:54;8.30;99.90
59025;DHT22;44806;48.008;13.666;2023-03-23T03:56:23;8.30;99.90
59025;DHT22;44806;48.008;13.666;2023-03-23T03:58:59;8.30;99.90
59025;DHT22;44806;48.008;13.666;2023-03-23T04:01:28;8.20;99.90
59025;DHT22;44806;48.008;13.666;2023-03-23T04:04:00;8.20;99.90
59025;DHT22;44806;48.008;13.666;2023-03-23T04:06:39;8.10;99.90
59025;DHT22;44806;48.008;13.666;2023-03-23T04:09:09;8.10;99.90
59025;DHT22;44806;48.008;13.666;2023-03-23T04:11:41;8.20;99.90
59025;DHT22;44806;48.008;13.666;2023-03-23T04:14:12;8.20;99.90
59025;DHT22;44806;48.008;13.666;2023-03-23T04:16:44;8.20;99.90
59025;DHT22;44806;48.008;13.666;2023-03-23T04:19:18;8.20;99.90
59025;DHT22;44806;48.008;13.666;2023-03-23T04:21:49;8.20;99.90
59025;DHT22;44806;48.008;13.666;2023-03-23T04:24:21;8.20;99.90
59025;DHT22;44806;48.008;13.666;2023-03-23T04:26:52;8.20;99.90
59025;DHT22;44806;48.008;13.666;2023-03-23T04:29:28;8.20;99.90
59025;DHT22;44806;48.008;13.666;2023-03-23T04:32:02;8.10;99.90
59025;DHT22;44806;48.008;13.666;2023-03-23T04:34:31;8.10;99.90
59025;DHT22;44806;48.008;13.666;2023-03-23T04:37:02;8.10;99.90
59025;DHT22;44806;48.008;13.666;2023-03-23T04:39:38;8.10;99.90
59025;DHT22;44806;48.008;13.666;2023-03-23T04:42:13;8.10;99.90
59025;DHT22;44806;48.008;13.666;2023-03-23T04:44:46;8.10;99.90
59025;DHT22;44806;48.008;13.666;2023-03-23T04:47:22;8.10;99.90
59025;DHT22;44806;48.008;13.666;2023-03-23T04:49:52;8.10;99.90
59025;DHT22;44806;48.008;13.666;2023-03-23T04:52:30;8.10;99.90
59025;DHT22;44806;48.008;13.666;2023-03-23T04:55:01;8.10;99.90
59025;DHT22;44806;48.008;13.666;2023-03-23T04:57:29;8.10;99.90
59025;DHT22;44806;48.008;13.666;2023-03-23T04:59:58;8.10;99.90
59025;DHT22;44806;48.008;13.666;2023-03-23T05:02:31;8.00;99.90
59025;DHT22;44806;48.008;13.666;2023-03-23T05:05:03;8.00;99.90
59025;DHT22;44806;48.008;13.666;2023-03-23T05:07:32;8.00;99.90
59025;DHT22;44806;48.008;13.666;2023-03-23T05:10:05;8.00;99.90
59025;DHT22;44806;48.008;13.666;2023-03-23T05:12:37;8.10;99.90
59025;DHT22;44806;48.008;13.666;2023-03-23T05:15:10;8.00;99.90
59025;DHT22;44806;48.008;13.666;2023-03-23T05:17:45;8.00;99.90
59025;DHT22;44806;48.008;13.666;2023-03-23T05:20:19;8.10;99.90
59025;DHT22;44806;48.008;13.666;2023-03-23T05:22:52;8.00;99.90
59025;DHT22;44806;48.008;13.666;2023-03-23T05:25:28;8.10;99.90
59025;DHT22;44806;48.008;13.666;2023-03-23T05:28:01;8.10;99.90
59025;DHT22;44806;48.008;13.666;2023-03-23T05:30:39;8.00;99.90
59025;DHT22;44806;48.008;13.666;2023-03-23T05:33:10;8.00;99.90
59025;DHT22;44806;48.008;13.666;2023-03-23T05:35:39;8.00;99.90
59025;DHT22;44806;48.008;13.666;2023-03-23T05:38:12;8.00;99.90
59025;DHT22;44806;48.008;13.666;2023-03-23T05:40:42;8.00;99.90
59025;DHT22;44806;48.008;13.666;2023-03-23T05:43:20;8.10;99.90
59025;DHT22;44806;48.008;13.666;2023-03-23T05:45:57;8.10;99.90
59025;DHT22;44806;48.008;13.666;2023-03-23T05:48:29;8.10;99.90
59025;DHT22;44806;48.008;13.666;2023-03-23T05:51:03;8.10;99.90
59025;DHT22;44806;48.008;13.666;2023-03-23T05:53:32;8.10;99.90
59025;DHT22;44806;48.008;13.666;2023-03-23T05:56:04;8.10;99.90
59025;DHT22;44806;48.008;13.666;2023-03-23T05:58:36;8.10;99.90
59025;DHT22;44806;48.008;13.666;2023-03-23T06:01:11;8.10;99.90
59025;DHT22;44806;48.008;13.666;2023-03-23T06:03:40;8.10;99.90
59025;DHT22;44806;48.008;13.666;2023-03-23T06:06:20;8.10;99.90
59025;DHT22;44806;48.008;13.666;2023-03-23T06:08:53;8.00;99.90
59025;DHT22;44806;48.008;13.666;2023-03-23T06:11:30;8.00;99.90
59025;DHT22;44806;48.008;13.666;2023-03-23T06:14:00;8.00;99.90
59025;DHT22;44806;48.008;13.666;2023-03-23T06:16:34;8.00;99.90
59025;DHT22;44806;48.008;13.666;2023-03-23T06:19:07;8.00;99.90
59025;DHT22;44806;48.008;13.666;2023-03-23T06:21:35;8.00;99.90
59025;DHT22;44806;48.008;13.666;2023-03-23T06:24:06;8.00;99.90
59025;DHT22;44806;48.008;13.666;2023-03-23T06:26:38;8.00;99.90
59025;DHT22;44806;48.008;13.666;2023-03-23T06:29:16;8.00;99.90
59025;DHT22;44806;48.008;13.666;2023-03-23T06:31:49;8.10;99.90
59025;DHT22;44806;48.008;13.666;2023-03-23T06:34:26;8.20;99.90
59025;DHT22;44806;48.008;13.666;2023-03-23T06:36:59;8.20;99.90
59025;DHT22;44806;48.008;13.666;2023-03-23T06:39:33;8.20;99.90
59025;DHT22;44806;48.008;13.666;2023-03-23T06:42:01;8.20;99.90
59025;DHT22;44806;48.008;13.666;2023-03-23T06:44:28;8.20;99.90
59025;DHT22;44806;48.008;13.666;2023-03-23T06:46:56;8.20;99.90
59025;DHT22;44806;48.008;13.666;2023-03-23T06:49:27;8.30;99.90
59025;DHT22;44806;48.008;13.666;2023-03-23T06:51:55;8.30;99.90
59025;DHT22;44806;48.008;13.666;2023-03-23T06:54:23;8.30;99.90
59025;DHT22;44806;48.008;13.666;2023-03-23T06:57:01;8.40;99.90
59025;DHT22;44806;48.008;13.666;2023-03-23T06:59:34;8.40;99.90
59025;DHT22;44806;48.008;13.666;2023-03-23T07:02:01;8.40;99.90
59025;DHT22;44806;48.008;13.666;2023-03-23T07:04:31;8.50;99.90
59025;DHT22;44806;48.008;13.666;2023-03-23T07:07:01;8.60;99.90
59025;DHT22;44806;48.008;13.666;2023-03-23T07:09:36;8.60;99.90
59025;DHT22;44806;48.008;13.666;2023-03-23T07:12:21;8.60;99.90
59025;DHT22;44806;48.008;13.666;2023-03-23T07:14:55;8.60;99.90
59025;DHT22;44806;48.008;13.666;2023-03-23T07:17:30;8.80;99.90
59025;DHT22;44806;48.008;13.666;2023-03-23T07:20:01;8.80;99.90
59025;DHT22;44806;48.008;13.666;2023-03-23T07:22:31;8.90;99.90
59025;DHT22;44806;48.008;13.666;2023-03-23T07:25:02;9.00;99.90
59025;DHT22;44806;48.008;13.666;2023-03-23T07:27:37;9.00;99.90
59025;DHT22;44806;48.008;13.666;2023-03-23T07:30:09;9.10;99.90
59025;DHT22;44806;48.008;13.666;2023-03-23T07:32:49;9.30;99.90
59025;DHT22;44806;48.008;13.666;2023-03-23T07:35:24;9.40;99.90
59025;DHT22;44806;48.008;13.666;2023-03-23T07:37:55;9.40;99.90
59025;DHT22;44806;48.008;13.666;2023-03-23T07:40:25;9.60;99.90
59025;DHT22;44806;48.008;13.666;2023-03-23T07:42:59;9.70;99.90
59025;DHT22;44806;48.008;13.666;2023-03-23T07:45:29;9.80;99.90
59025;DHT22;44806;48.008;13.666;2023-03-23T07:48:01;9.90;99.90
59025;DHT22;44806;48.008;13.666;2023-03-23T07:50:34;10.00;99.90
59025;DHT22;44806;48.008;13.666;2023-03-23T07:53:03;10.10;99.90
59025;DHT22;44806;48.008;13.666;2023-03-23T07:55:34;10.10;99.90
59025;DHT22;44806;48.008;13.666;2023-03-23T07:58:02;10.20;99.90
59025;DHT22;44806;48.008;13.666;2023-03-23T08:00:32;10.30;99.90
59025;DHT22;44806;48.008;13.666;2023-03-23T08:02:59;10.40;99.90
59025;DHT22;44806;48.008;13.666;2023-03-23T08:05:30;10.50;99.90
59025;DHT22;44806;48.008;13.666;2023-03-23T08:08:02;10.60;99.90
59025;DHT22;44806;48.008;13.666;2023-03-23T08:10:32;10.80;99.90
59025;DHT22;44806;48.008;13.666;2023-03-23T08:13:04;10.90;99.90
59025;DHT22;44806;48.008;13.666;2023-03-23T08:15:33;11.00;99.90
59025;DHT22;44806;48.008;13.666;2023-03-23T08:18:05;11.10;99.90
59025;DHT22;44806;48.008;13.666;2023-03-23T08:20:33;11.20;99.90
59025;DHT22;44806;48.008;13.666;2023-03-23T08:23:03;11.40;99.90
59025;DHT22;44806;48.008;13.666;2023-03-23T08:25:36;11.60;99.90
59025;DHT22;44806;48.008;13.666;2023-03-23T08:28:05;11.70;99.90
59025;DHT22;44806;48.008;13.666;2023-03-23T08:30:41;11.90;99.90
59025;DHT22;44806;48.008;13.666;2023-03-23T08:33:09;12.10;99.90
59025;DHT22;44806;48.008;13.666;2023-03-23T08:35:55;12.20;99.90
59025;DHT22;44806;48.008;13.666;2023-03-23T08:38:30;12.40;99.90
59025;DHT22;44806;48.008;13.666;2023-03-23T08:40:59;12.50;99.90
59025;DHT22;44806;48.008;13.666;2023-03-23T08:43:34;12.70;99.90
59025;DHT22;44806;48.008;13.666;2023-03-23T08:46:03;12.80;99.90
59025;DHT22;44806;48.008;13.666;2023-03-23T08:48:39;12.90;99.90
59025;DHT22;44806;48.008;13.666;2023-03-23T08:51:16;13.00;99.90
59025;DHT22;44806;48.008;13.666;2023-03-23T08:53:47;13.10;99.90
59025;DHT22;44806;48.008;13.666;2023-03-23T08:56:33;13.30;99.90
59025;DHT22;44806;48.008;13.666;2023-03-23T08:59:06;13.40;99.90
59025;DHT22;44806;48.008;13.666;2023-03-23T09:01:35;13.50;99.90
59025;DHT22;44806;48.008;13.666;2023-03-23T09:04:05;13.70;99.90
59025;DHT22;44806;48.008;13.666;2023-03-23T09:06:34;13.90;99.90
59025;DHT22;44806;48.008;13.666;2023-03-23T09:09:02;14.10;99.90
59025;DHT22;44806;48.008;13.666;2023-03-23T09:11:32;14.30;99.90
59025;DHT22;44806;48.008;13.666;2023-03-23T09:14:02;14.60;98.40
59025;DHT22;44806;48.008;13.666;2023-03-23T09:16:33;14.70;99.10
59025;DHT22;44806;48.008;13.666;2023-03-23T09:19:01;14.80;95.20
59025;DHT22;44806;48.008;13.666;2023-03-23T09:21:32;14.80;95.80
59025;DHT22;44806;48.008;13.666;2023-03-23T09:24:03;15.00;95.90
59025;DHT22;44806;48.008;13.666;2023-03-23T09:26:39;15.20;95.00
59025;DHT22;44806;48.008;13.666;2023-03-23T09:29:10;15.30;94.10
59025;DHT22;44806;48.008;13.666;2023-03-23T09:31:38;15.40;92.90
59025;DHT22;44806;48.008;13.666;2023-03-23T09:34:08;15.40;92.00
59025;DHT22;44806;48.008;13.666;2023-03-23T09:36:43;15.50;93.20
59025;DHT22;44806;48.008;13.666;2023-03-23T09:39:13;15.60;93.40
59025;DHT22;44806;48.008;13.666;2023-03-23T09:42:13;15.70;91.90
59025;DHT22;44806;48.008;13.666;2023-03-23T09:44:55;15.80;91.50
59025;DHT22;44806;48.008;13.666;2023-03-23T09:47:35;15.80;90.80
59025;DHT22;44806;48.008;13.666;2023-03-23T09:50:10;15.80;90.10
59025;DHT22;44806;48.008;13.666;2023-03-23T09:52:55;15.90;90.20
59025;DHT22;44806;48.008;13.666;2023-03-23T09:55:25;16.00;87.90
59025;DHT22;44806;48.008;13.666;2023-03-23T09:58:01;16.10;88.20
59025;DHT22;44806;48.008;13.666;2023-03-23T10:00:34;16.20;84.20
59025;DHT22;44806;48.008;13.666;2023-03-23T10:03:13;16.30;82.50
59025;DHT22;44806;48.008;13.666;2023-03-23T10:05:46;16.50;83.20
59025;DHT22;44806;48.008;13.666;2023-03-23T10:08:17;16.60;80.80
59025;DHT22;44806;48.008;13.666;2023-03-23T10:10:52;16.70;81.20
59025;DHT22;44806;48.008;13.666;2023-03-23T10:13:37;16.80;78.10
59025;DHT22;44806;48.008;13.666;2023-03-23T10:16:15;16.90;79.70
59025;DHT22;44806;48.008;13.666;2023-03-23T10:18:51;17.00;80.50
59025;DHT22;44806;48.008;13.666;2023-03-23T10:21:24;17.10;80.40
59025;DHT22;44806;48.008;13.666;2023-03-23T10:23:59;17.10;77.70
59025;DHT22;44806;48.008;13.666;2023-03-23T10:26:37;17.10;74.30
59025;DHT22;44806;48.008;13.666;2023-03-23T10:29:16;17.20;79.00
59025;DHT22;44806;48.008;13.666;2023-03-23T10:31:55;17.30;77.50
59025;DHT22;44806;48.008;13.666;2023-03-23T10:34:30;17.40;76.00
59025;DHT22;44806;48.008;13.666;2023-03-23T10:37:05;17.60;80.20
59025;DHT22;44806;48.008;13.666;2023-03-23T10:39:45;17.70;75.70
59025;DHT22;44806;48.008;13.666;2023-03-23T10:42:27;17.90;74.40
59025;DHT22;44806;48.008;13.666;2023-03-23T10:45:11;18.00;76.20
59025;DHT22;44806;48.008;13.666;2023-03-23T10:47:54;18.10;74.80
59025;DHT22;44806;48.008;13.666;2023-03-23T10:50:30;18.30;71.70
59025;DHT22;44806;48.008;13.666;2023-03-23T10:53:11;18.40;73.40
59025;DHT22;44806;48.008;13.666;2023-03-23T10:55:44;18.50;71.20
59025;DHT22;44806;48.008;13.666;2023-03-23T10:58:27;18.70;74.80
59025;DHT22;44806;48.008;13.666;2023-03-23T11:01:04;18.80;77.10
59025;DHT22;44806;48.008;13.666;2023-03-23T11:03:42;18.90;75.70
59025;DHT22;44806;48.008;13.666;2023-03-23T11:06:22;19.10;72.60
59025;DHT22;44806;48.008;13.666;2023-03-23T11:09:02;19.20;72.90
59025;DHT22;44806;48.008;13.666;2023-03-23T11:11:38;19.30;74.00
59025;DHT22;44806;48.008;13.666;2023-03-23T11:14:17;19.40;70.40
59025;DHT22;44806;48.008;13.666;2023-03-23T11:16:56;19.40;74.20
59025;DHT22;44806;48.008;13.666;2023-03-23T11:19:33;19.40;69.40
59025;DHT22;44806;48.008;13.666;2023-03-23T11:22:07;19.60;73.80
59025;DHT22;44806;48.008;13.666;2023-03-23T11:24:41;19.90;73.30
59025;DHT22;44806;48.008;13.666;2023-03-23T11:27:17;20.00;71.40
59025;DHT22;44806;48.008;13.666;2023-03-23T11:29:53;20.10;70.00
59025;DHT22;44806;48.008;13.666;2023-03-23T11:32:26;20.20;71.90
59025;DHT22;44806;48.008;13.666;2023-03-23T11:35:16;20.30;67.60
59025;DHT22;44806;48.008;13.666;2023-03-23T11:37:48;20.30;67.10
59025;DHT22;44806;48.008;13.666;2023-03-23T11:40:19;20.40;66.30
59025;DHT22;44806;48.008;13.666;2023-03-23T11:42:48;20.40;66.60
59025;DHT22;44806;48.008;13.666;2023-03-23T11:45:24;20.50;62.60
59025;DHT22;44806;48.008;13.666;2023-03-23T11:48:10;20.50;60.70
59025;DHT22;44806;48.008;13.666;2023-03-23T11:50:58;20.60;59.20
59025;DHT22;44806;48.008;13.666;2023-03-23T11:53:34;20.70;56.30
59025;DHT22;44806;48.008;13.666;2023-03-23T11:56:18;20.60;58.90
59025;DHT22;44806;48.008;13.666;2023-03-23T11:58:54;20.60;58.70
59025;DHT22;44806;48.008;13.666;2023-03-23T12:01:35;20.60;56.70
59025;DHT22;44806;48.008;13.666;2023-03-23T12:04:25;20.50;59.50
59025;DHT22;44806;48.008;13.666;2023-03-23T12:07:07;20.60;57.90
59025;DHT22;44806;48.008;13.666;2023-03-23T12:09:48;20.60;57.00
59025;DHT22;44806;48.008;13.666;2023-03-23T12:12:30;20.70;58.10
59025;DHT22;44806;48.008;13.666;2023-03-23T12:15:10;20.80;57.20
59025;DHT22;44806;48.008;13.666;2023-03-23T12:17:51;20.80;57.70
59025;DHT22;44806;48.008;13.666;2023-03-23T12:20:31;20.90;61.20
59025;DHT22;44806;48.008;13.666;2023-03-23T12:26:14;20.90;55.30
59025;DHT22;44806;48.008;13.666;2023-03-23T12:29:22;21.10;54.90
59025;DHT22;44806;48.008;13.666;2023-03-23T12:35:19;21.20;57.00
59025;DHT22;44806;48.008;13.666;2023-03-23T12:37:58;21.30;56.00
59025;DHT22;44806;48.008;13.666;2023-03-23T12:41:00;21.30;57.90
59025;DHT22;44806;48.008;13.666;2023-03-23T12:43:33;21.30;57.10
59025;DHT22;44806;48.008;13.666;2023-03-23T12:46:24;21.20;55.20
59025;DHT22;44806;48.008;13.666;2023-03-23T12:49:02;21.10;56.00
59025;DHT22;44806;48.008;13.666;2023-03-23T12:51:39;21.10;56.30
59025;DHT22;44806;48.008;13.666;2023-03-23T12:54:16;21.10;56.70
59025;DHT22;44806;48.008;13.666;2023-03-23T12:56:53;21.20;55.40
59025;DHT22;44806;48.008;13.666;2023-03-23T12:59:37;21.20;54.70
59025;DHT22;44806;48.008;13.666;2023-03-23T13:02:16;21.20;54.10
59025;DHT22;44806;48.008;13.666;2023-03-23T13:04:54;21.20;54.60
59025;DHT22;44806;48.008;13.666;2023-03-23T13:07:29;21.20;54.50
59025;DHT22;44806;48.008;13.666;2023-03-23T13:10:03;21.20;53.10
59025;DHT22;44806;48.008;13.666;2023-03-23T13:12:35;21.20;55.70
59025;DHT22;44806;48.008;13.666;2023-03-23T13:15:19;21.20;54.60
59025;DHT22;44806;48.008;13.666;2023-03-23T13:17:56;21.20;54.20
59025;DHT22;44806;48.008;13.666;2023-03-23T13:23:24;21.10;52.60
59025;DHT22;44806;48.008;13.666;2023-03-23T13:26:00;21.30;51.80
59025;DHT22;44806;48.008;13.666;2023-03-23T13:28:34;21.30;54.60
59025;DHT22;44806;48.008;13.666;2023-03-23T13:31:13;21.30;54.00
59025;DHT22;44806;48.008;13.666;2023-03-23T13:33:49;21.30;54.30
59025;DHT22;44806;48.008;13.666;2023-03-23T13:36:26;21.30;53.80
59025;DHT22;44806;48.008;13.666;2023-03-23T13:38:57;21.20;53.20
59025;DHT22;44806;48.008;13.666;2023-03-23T13:41:28;21.20;53.70
59025;DHT22;44806;48.008;13.666;2023-03-23T13:44:18;21.30;54.00
59025;DHT22;44806;48.008;13.666;2023-03-23T13:47:14;21.30;54.80
59025;DHT22;44806;48.008;13.666;2023-03-23T13:49:51;21.20;53.90
59025;DHT22;44806;48.008;13.666;2023-03-23T13:52:24;21.20;54.50
59025;DHT22;44806;48.008;13.666;2023-03-23T13:55:17;20.90;53.40
59025;DHT22;44806;48.008;13.666;2023-03-23T13:57:54;20.80;53.00
59025;DHT22;44806;48.008;13.666;2023-03-23T14:00:36;20.70;52.90
59025;DHT22;44806;48.008;13.666;2023-03-23T14:03:13;20.70;52.70
59025;DHT22;44806;48.008;13.666;2023-03-23T14:05:48;20.80;54.20
59025;DHT22;44806;48.008;13.666;2023-03-23T14:08:38;20.80;54.70
59025;DHT22;44806;48.008;13.666;2023-03-23T14:11:22;20.60;54.70
59025;DHT22;44806;48.008;13.666;2023-03-23T14:14:13;20.60;54.50
59025;DHT22;44806;48.008;13.666;2023-03-23T14:16:52;20.60;54.60
59025;DHT22;44806;48.008;13.666;2023-03-23T14:19:27;20.70;55.70
59025;DHT22;44806;48.008;13.666;2023-03-23T14:21:58;20.80;54.70
59025;DHT22;44806;48.008;13.666;2023-03-23T14:24:33;20.70;54.50
59025;DHT22;44806;48.008;13.666;2023-03-23T14:27:14;20.70;55.20
59025;DHT22;44806;48.008;13.666;2023-03-23T14:29:45;20.70;52.60
59025;DHT22;44806;48.008;13.666;2023-03-23T14:32:17;20.70;53.80
59025;DHT22;44806;48.008;13.666;2023-03-23T14:34:47;20.70;54.00
59025;DHT22;44806;48.008;13.666;2023-03-23T14:37:16;20.60;52.80
59025;DHT22;44806;48.008;13.666;2023-03-23T14:39:51;20.60;55.60
59025;DHT22;44806;48.008;13.666;2023-03-23T14:42:37;20.50;52.70
59025;DHT22;44806;48.008;13.666;2023-03-23T14:45:10;20.40;54.00
59025;DHT22;44806;48.008;13.666;2023-03-23T14:47:54;20.50;52.50
59025;DHT22;44806;48.008;13.666;2023-03-23T14:50:29;20.40;52.30
59025;DHT22;44806;48.008;13.666;2023-03-23T14:53:09;20.50;53.30
59025;DHT22;44806;48.008;13.666;2023-03-23T14:55:47;20.50;54.80
59025;DHT22;44806;48.008;13.666;2023-03-23T14:58:16;20.40;55.20
59025;DHT22;44806;48.008;13.666;2023-03-23T15:00:47;20.30;53.30
59025;DHT22;44806;48.008;13.666;2023-03-23T15:03:22;20.20;54.50
59025;DHT22;44806;48.008;13.666;2023-03-23T15:05:59;20.20;54.80
59025;DHT22;44806;48.008;13.666;2023-03-23T15:08:34;20.10;53.30
59025;DHT22;44806;48.008;13.666;2023-03-23T15:11:12;20.10;55.30
59025;DHT22;44806;48.008;13.666;2023-03-23T15:13:44;20.00;56.00
59025;DHT22;44806;48.008;13.666;2023-03-23T15:16:18;20.00;56.00
59025;DHT22;44806;48.008;13.666;2023-03-23T15:18:51;20.00;56.00
59025;DHT22;44806;48.008;13.666;2023-03-23T15:21:26;20.00;55.60
59025;DHT22;44806;48.008;13.666;2023-03-23T15:23:57;19.90;56.00
59025;DHT22;44806;48.008;13.666;2023-03-23T15:26:32;20.00;56.20
59025;DHT22;44806;48.008;13.666;2023-03-23T15:29:16;19.90;56.70
59025;DHT22;44806;48.008;13.666;2023-03-23T15:31:50;20.00;56.60
59025;DHT22;44806;48.008;13.666;2023-03-23T15:34:36;20.00;56.40
59025;DHT22;44806;48.008;13.666;2023-03-23T15:37:22;19.90;56.20
59025;DHT22;44806;48.008;13.666;2023-03-23T15:39:52;19.90;56.10
59025;DHT22;44806;48.008;13.666;2023-03-23T15:42:29;19.90;56.00
59025;DHT22;44806;48.008;13.666;2023-03-23T15:45:20;19.90;58.50
59025;DHT22;44806;48.008;13.666;2023-03-23T15:47:58;19.90;58.50
59025;DHT22;44806;48.008;13.666;2023-03-23T15:50:35;19.90;56.60
59025;DHT22;44806;48.008;13.666;2023-03-23T15:53:20;19.90;58.90
59025;DHT22;44806;48.008;13.666;2023-03-23T15:55:49;19.80;56.20
59025;DHT22;44806;48.008;13.666;2023-03-23T15:58:17;19.80;54.90
59025;DHT22;44806;48.008;13.666;2023-03-23T16:00:47;19.70;54.60
59025;DHT22;44806;48.008;13.666;2023-03-23T16:03:20;19.70;54.80
59025;DHT22;44806;48.008;13.666;2023-03-23T16:05:57;19.70;55.40
59025;DHT22;44806;48.008;13.666;2023-03-23T16:08:34;19.70;56.80
59025;DHT22;44806;48.008;13.666;2023-03-23T16:11:10;19.60;56.30
59025;DHT22;44806;48.008;13.666;2023-03-23T16:13:44;19.60;56.10
59025;DHT22;44806;48.008;13.666;2023-03-23T16:16:17;19.50;54.90
59025;DHT22;44806;48.008;13.666;2023-03-23T16:18:50;19.40;54.70
59025;DHT22;44806;48.008;13.666;2023-03-23T16:21:19;19.30;55.50
59025;DHT22;44806;48.008;13.666;2023-03-23T16:23:48;19.30;56.40